sim
Sign-in with your pilot id or email,
or register
Callsign
Passwort

Schedule Details

Flight Number: OEO3283
Departure: Mahon Menorca Airport (LEMH) at 17:10
Arrival: Munich Airport (EDDM) at 19:10

Weather Information
Getting current METAR information for LEMH 241030Z 23011KT 160V270 9999 SCT012 27/22 Q1012
Getting current METAR information for EDDM 241050Z 27005KT 220V300 9999 FEW026 20/13 Q1010 NOSIG

Schedule Frequency

Route Map